Time;durP1;ratioP1;P1;durP2;ratioP2;P2;SDS_P1;SDS_P2;PMS_P1;PMS_P2;Temp;Humidity;BMP_temperature;BMP_pressure;BME280_temperature;BME280_humidity;BME280_pressure;Samples;Min_cycle;Max_cycle;Signal;HPM_P1;HPM_P2
2021/09/22 00:00:01;;;;;;;;;;;;;;;;;;5074057;28;19928;-67
2021/09/22 00:02:28;;;;;;;;;;;;;;;;;;5073792;28;20512;-67
2021/09/22 00:04:54;;;;;;;;;;;;;;;;;;5073718;28;20328;-66
2021/09/22 00:07:21;;;;;;;;;;;;;;;;;;5074740;28;19924;-67
2021/09/22 00:09:49;;;;;;;;;;;;;;;;;;5073651;28;19947;-66
2021/09/22 00:12:16;;;;;;;;;;;;;;;;;;5073649;28;20023;-67
2021/09/22 00:14:42;;;;;;;;;;;;;;;;;;5073509;28;20392;-66
2021/09/22 00:17:09;;;;;;;;;;;;;;;;;;5073752;28;19924;-66
2021/09/22 00:19:36;;;;;;;;;;;;;;;;;;5073145;28;20148;-66
2021/09/22 00:22:03;;;;;;;;;;;;;;;;;;5074081;28;19975;-67
2021/09/22 00:24:30;;;;;;;;;;;;;;;;;;5073798;28;20034;-67
2021/09/22 00:26:58;;;;;;;;;;;;;;;;;;5074494;28;19932;-66
2021/09/22 00:29:25;;;;;;;;;;;;;;;;;;5073292;28;19924;-66
2021/09/22 00:31:52;;;;;;;;;;;;;;;;;;5072995;28;19924;-66
2021/09/22 00:34:19;;;;;;;;;;;;;;;;;;5072820;28;20389;-67
2021/09/22 00:36:47;;;;;;;;;;;;;;;;;;5073155;28;19924;-66
2021/09/22 00:39:14;;;;;;;;;;;;;;;;;;5083370;28;20388;-67
2021/09/22 00:41:41;;;;;;;;;;;;;;;;;;5072766;28;20036;-66
2021/09/22 00:44:08;;;;;;;;;;;;;;;;;;5072782;28;19989;-66
2021/09/22 00:46:35;;;;;;;;;;;;;;;;;;5073366;28;19943;-66
2021/09/22 00:49:02;;;;;;;;;;;;;;;;;;5074119;28;19936;-65
2021/09/22 00:51:29;;;;;;;;;;;;;;;;;;5073385;28;19931;-65
2021/09/22 00:53:56;;;;;;;;;;;;;;;;;;5075449;28;20376;-67
2021/09/22 00:56:23;;;;;;;;;;;;;;;;;;5074514;28;19924;-66
2021/09/22 00:58:50;;;;;;;;;;;;;;;;;;5072461;28;19924;-67
2021/09/22 01:01:17;;;;;;;;;;;;;;;;;;5070003;28;20003;-67
2021/09/22 01:03:44;;;;;;;;;;;;;;;;;;5072348;28;19924;-65
2021/09/22 01:06:11;;;;;;;;;;;;;;;;;;5073344;28;19935;-66
2021/09/22 01:08:38;;;;;;;;;;;;;;;;;;5072897;28;20278;-66
2021/09/22 01:11:05;;;;;;;;;;;;;;;;;;5072423;28;20011;-66
2021/09/22 01:13:32;;;;;;;;;;;;;;;;;;5072593;28;19986;-66
2021/09/22 01:15:59;;;;;;;;;;;;;;;;;;5072652;28;19959;-66
2021/09/22 01:18:26;;;;;;;;;;;;;;;;;;5073209;28;19947;-64
2021/09/22 01:20:53;;;;;;;;;;;;;;;;;;5072308;28;20015;-66
2021/09/22 01:23:20;;;;;;;;;;;;;;;;;;5072539;28;19928;-65
2021/09/22 01:25:47;;;;;;;;;;;;;;;;;;5068697;28;19924;-66
2021/09/22 01:28:14;;;;;;;;;;;;;;;;;;5073291;28;19998;-64
2021/09/22 01:30:41;;;;;;;;;;;;;;;;;;5072334;28;19928;-66
2021/09/22 01:33:08;;;;;;;;;;;;;;;;;;5072318;28;19924;-65
2021/09/22 01:35:35;;;;;;;;;;;;;;;;;;5068558;28;19931;-66
2021/09/22 01:38:01;;;;;;;;;;;;;;;;;;5072246;28;19982;-66
2021/09/22 01:40:28;;;;;;;;;;;;;;;;;;5072291;28;19933;-66
2021/09/22 01:42:55;;;;;;;;;;;;;;;;;;5071983;28;20399;-66
2021/09/22 01:45:22;;;;;;;;;;;;;;;;;;5072601;28;19932;-67
2021/09/22 01:47:49;;;;;;;;;;;;;;;;;;5073236;28;19924;-66
2021/09/22 01:50:16;;;;;;;;;;;;;;;;;;5077659;28;20318;-66
2021/09/22 01:52:43;;;;;;;;;;;;;;;;;;5075533;28;20396;-66
2021/09/22 01:55:10;;;;;;;;;;;;;;;;;;5072303;28;20014;-66
2021/09/22 01:57:37;;;;;;;;;;;;;;;;;;5072856;28;20019;-67
2021/09/22 02:00:04;;;;;;;;;;;;;;;;;;5077622;28;19924;-66
2021/09/22 02:02:31;;;;;;;;;;;;;;;;;;5072622;28;19928;-66
2021/09/22 02:04:58;;;;;;;;;;;;;;;;;;5072379;28;19949;-65
2021/09/22 02:07:25;;;;;;;;;;;;;;;;;;5073153;28;20300;-66
2021/09/22 02:09:52;;;;;;;;;;;;;;;;;;5072022;28;19924;-65
2021/09/22 02:12:19;;;;;;;;;;;;;;;;;;5072311;28;19936;-66
2021/09/22 02:14:46;;;;;;;;;;;;;;;;;;5072101;28;19968;-66
2021/09/22 02:17:13;;;;;;;;;;;;;;;;;;5070813;28;19925;-66
2021/09/22 02:19:40;;;;;;;;;;;;;;;;;;5071742;28;19924;-65
2021/09/22 02:22:07;;;;;;;;;;;;;;;;;;5071835;28;20407;-66
2021/09/22 02:24:34;;;;;;;;;;;;;;;;;;5071726;28;20331;-66
2021/09/22 02:27:01;;;;;;;;;;;;;;;;;;5072673;28;19924;-65
2021/09/22 02:29:27;;;;;;;;;;;;;;;;;;5071911;28;20392;-67
2021/09/22 02:31:54;;;;;;;;;;;;;;;;;;5071635;28;19931;-66
2021/09/22 02:34:21;;;;;;;;;;;;;;;;;;5071483;28;19928;-67
2021/09/22 02:36:48;;;;;;;;;;;;;;;;;;5072842;28;20007;-64
2021/09/22 02:39:15;;;;;;;;;;;;;;;;;;5071729;28;19924;-67
2021/09/22 02:41:42;;;;;;;;;;;;;;;;;;5075575;28;20379;-67
2021/09/22 02:44:09;;;;;;;;;;;;;;;;;;5074762;28;19951;-67
2021/09/22 02:46:36;;;;;;;;;;;;;;;;;;5075911;28;19932;-67
2021/09/22 02:49:03;;;;;;;;;;;;;;;;;;5077939;28;19946;-67
2021/09/22 02:51:30;;;;;;;;;;;;;;;;;;5081206;28;20019;-66
2021/09/22 02:53:57;;;;;;;;;;;;;;;;;;5075227;28;19928;-66
2021/09/22 02:56:24;;;;;;;;;;;;;;;;;;5076561;28;19944;-66
2021/09/22 02:58:51;;;;;;;;;;;;;;;;;;5074915;28;19928;-65
2021/09/22 03:01:18;;;;;;;;;;;;;;;;;;5074592;28;20308;-66
2021/09/22 03:03:45;;;;;;;;;;;;;;;;;;5074573;28;19924;-66
2021/09/22 03:06:12;;;;;;;;;;;;;;;;;;5075464;28;20308;-66
2021/09/22 03:08:39;;;;;;;;;;;;;;;;;;5074540;28;19929;-67
2021/09/22 03:11:06;;;;;;;;;;;;;;;;;;5074846;28;19924;-67
2021/09/22 03:13:33;;;;;;;;;;;;;;;;;;5074447;28;19925;-66
2021/09/22 03:16:00;;;;;;;;;;;;;;;;;;5074356;28;19992;-67
2021/09/22 03:18:27;;;;;;;;;;;;;;;;;;5074398;28;20304;-67
2021/09/22 03:20:54;;;;;;;;;;;;;;;;;;5074219;28;19925;-67
2021/09/22 03:23:21;;;;;;;;;;;;;;;;;;5074606;28;19928;-67
2021/09/22 03:25:48;;;;;;;;;;;;;;;;;;5074932;28;19925;-66
2021/09/22 03:28:15;;;;;;;;;;;;;;;;;;5075037;28;19931;-66
2021/09/22 03:30:42;;;;;;;;;;;;;;;;;;5068387;28;20427;-65
2021/09/22 03:33:09;;;;;;;;;;;;;;;;;;5071066;28;19932;-65
2021/09/22 03:35:36;;;;;;;;;;;;;;;;;;5072962;28;19940;-65
2021/09/22 03:38:03;;;;;;;;;;;;;;;;;;5074929;28;19924;-65
2021/09/22 03:40:30;;;;;;;;;;;;;;;;;;5075705;28;19931;-66
2021/09/22 03:42:57;;;;;;;;;;;;;;;;;;5096265;22;19931;-68
2021/09/22 03:45:24;;;;;;;;;;;;;;;;;;5089582;28;19924;-68
2021/09/22 03:47:51;;;;;;;;;;;;;;;;;;5093580;28;19935;-68
2021/09/22 03:50:18;;;;;;;;;;;;;;;;;;5095674;28;19934;-68
2021/09/22 03:52:45;;;;;;;;;;;;;;;;;;5093351;28;19947;-69
2021/09/22 03:55:11;;;;;;;;;;;;;;;;;;5076838;28;19925;-68
2021/09/22 03:57:38;;;;;;;;;;;;;;;;;;5083138;28;20007;-69
2021/09/22 04:00:05;;;;;;;;;;;;;;;;;;5081184;28;19924;-69
2021/09/22 04:02:32;;;;;;;;;;;;;;;;;;5078722;28;19978;-69
2021/09/22 04:04:59;;;;;;;;;;;;;;;;;;5076463;28;19924;-69
2021/09/22 04:07:26;;;;;;;;;;;;;;;;;;5076053;28;20011;-68
2021/09/22 04:09:53;;;;;;;;;;;;;;;;;;5074683;28;19924;-69
2021/09/22 04:12:20;;;;;;;;;;;;;;;;;;5074628;28;20022;-69
2021/09/22 04:14:47;;;;;;;;;;;;;;;;;;5075265;28;20019;-69
2021/09/22 04:17:14;;;;;;;;;;;;;;;;;;5075657;28;19928;-69
2021/09/22 04:19:41;;;;;;;;;;;;;;;;;;5074421;28;20410;-69
2021/09/22 04:22:08;;;;;;;;;;;;;;;;;;5075161;28;19931;-70
2021/09/22 04:24:37;;;;;;;;;;;;;;;;;;5073873;28;20414;-67
2021/09/22 04:27:04;;;;;;;;;;;;;;;;;;5075755;28;19930;-68
2021/09/22 04:29:31;;;;;;;;;;;;;;;;;;5074304;28;19924;-69
2021/09/22 04:31:58;;;;;;;;;;;;;;;;;;5074359;28;19982;-69
2021/09/22 04:34:25;;;;;;;;;;;;;;;;;;5085101;28;19928;-69
2021/09/22 04:36:52;;;;;;;;;;;;;;;;;;5086420;28;20493;-69
2021/09/22 04:39:19;;;;;;;;;;;;;;;;;;5074668;28;19925;-68
2021/09/22 04:41:46;;;;;;;;;;;;;;;;;;5074411;28;19924;-69
2021/09/22 04:44:13;;;;;;;;;;;;;;;;;;5086645;28;20376;-69
2021/09/22 04:46:40;;;;;;;;;;;;;;;;;;5071003;28;19928;-69
2021/09/22 04:49:07;;;;;;;;;;;;;;;;;;5079547;28;20121;-69
2021/09/22 04:51:34;;;;;;;;;;;;;;;;;;5079148;28;20312;-69
2021/09/22 04:54:01;;;;;;;;;;;;;;;;;;5074219;28;19931;-69
2021/09/22 04:56:28;;;;;;;;;;;;;;;;;;5075284;28;19924;-69
2021/09/22 04:58:55;;;;;;;;;;;;;;;;;;5074289;28;20366;-69
2021/09/22 05:01:22;;;;;;;;;;;;;;;;;;5073482;28;20015;-69
2021/09/22 05:03:49;;;;;;;;;;;;;;;;;;5072757;28;20291;-69
2021/09/22 05:06:18;;;;;;;;;;;;;;;;;;5074532;28;19970;-69
2021/09/22 05:08:45;;;;;;;;;;;;;;;;;;5073668;28;19924;-69
2021/09/22 05:11:12;;;;;;;;;;;;;;;;;;5072638;28;20019;-69
2021/09/22 05:13:39;;;;;;;;;;;;;;;;;;5072778;28;19924;-69
2021/09/22 05:16:06;;;;;;;;;;;;;;;;;;5073418;28;19924;-69
2021/09/22 05:18:34;;;;;;;;;;;;;;;;;;5072629;28;19924;-70
2021/09/22 05:21:01;;;;;;;;;;;;;;;;;;5072333;28;19925;-69
2021/09/22 05:23:28;;;;;;;;;;;;;;;;;;5072247;28;20019;-69
2021/09/22 05:25:55;;;;;;;;;;;;;;;;;;5073378;28;19924;-69
2021/09/22 05:28:22;;;;;;;;;;;;;;;;;;5072642;28;19932;-69
2021/09/22 05:30:49;;;;;;;;;;;;;;;;;;5072277;28;20032;-70
2021/09/22 05:33:16;;;;;;;;;;;;;;;;;;5074139;28;20408;-68
2021/09/22 05:35:43;;;;;;;;;;;;;;;;;;5077250;28;20033;-69
2021/09/22 05:38:10;;;;;;;;;;;;;;;;;;5072688;28;19929;-69
2021/09/22 05:40:37;;;;;;;;;;;;;;;;;;5072101;28;19929;-69
2021/09/22 05:43:04;;;;;;;;;;;;;;;;;;5071961;28;19924;-69
2021/09/22 05:45:31;;;;;;;;;;;;;;;;;;5073391;28;19925;-69
2021/09/22 05:47:58;;;;;;;;;;;;;;;;;;5071890;28;20395;-69
2021/09/22 05:50:26;;;;;;;;;;;;;;;;;;5071877;28;19925;-69
2021/09/22 05:52:53;;;;;;;;;;;;;;;;;;5071902;28;19928;-69
2021/09/22 05:55:21;;;;;;;;;;;;;;;;;;5072557;28;20297;-69
2021/09/22 05:57:48;;;;;;;;;;;;;;;;;;5075380;28;20388;-69
2021/09/22 06:00:15;;;;;;;;;;;;;;;;;;5075970;28;20304;-69
2021/09/22 06:02:42;;;;;;;;;;;;;;;;;;5071932;28;19930;-70
2021/09/22 06:05:09;;;;;;;;;;;;;;;;;;5071774;28;19925;-69
2021/09/22 06:07:36;;;;;;;;;;;;;;;;;;5072011;28;19924;-70
2021/09/22 06:10:03;;;;;;;;;;;;;;;;;;5071469;28;19924;-68
2021/09/22 06:12:30;;;;;;;;;;;;;;;;;;5071572;28;19939;-69
2021/09/22 06:14:57;;;;;;;;;;;;;;;;;;5073996;28;20407;-69
2021/09/22 06:17:24;;;;;;;;;;;;;;;;;;5075887;28;20300;-69
2021/09/22 06:19:51;;;;;;;;;;;;;;;;;;5075723;28;20366;-69
2021/09/22 06:22:24;;;;;;;;;;;;;;;;;;5080593;28;20424;-69
2021/09/22 06:24:50;;;;;;;;;;;;;;;;;;5082863;28;19935;-72
2021/09/22 06:27:17;;;;;;;;;;;;;;;;;;5075210;28;20399;-69
2021/09/22 06:29:44;;;;;;;;;;;;;;;;;;5075486;28;19924;-70
2021/09/22 06:32:11;;;;;;;;;;;;;;;;;;5075141;28;19925;-70
2021/09/22 06:34:40;;;;;;;;;;;;;;;;;;5075983;28;19932;-68
2021/09/22 06:37:07;;;;;;;;;;;;;;;;;;5075545;28;20325;-71
2021/09/22 06:39:34;;;;;;;;;;;;;;;;;;5075065;28;19946;-68
2021/09/22 06:42:01;;;;;;;;;;;;;;;;;;5075159;28;19935;-69
2021/09/22 06:44:28;;;;;;;;;;;;;;;;;;5075711;28;19924;-69
2021/09/22 06:46:55;;;;;;;;;;;;;;;;;;5075009;28;19924;-71
2021/09/22 06:49:22;;;;;;;;;;;;;;;;;;5074849;28;19924;-71
2021/09/22 06:51:49;;;;;;;;;;;;;;;;;;5075119;28;20377;-69
2021/09/22 06:54:16;;;;;;;;;;;;;;;;;;5075232;28;20392;-69
2021/09/22 06:56:43;;;;;;;;;;;;;;;;;;5075240;28;20398;-68
2021/09/22 06:59:10;;;;;;;;;;;;;;;;;;5075038;28;19924;-69
2021/09/22 07:01:37;;;;;;;;;;;;;;;;;;5074117;28;19973;-70
2021/09/22 07:04:04;;;;;;;;;;;;;;;;;;5075194;28;20400;-68
2021/09/22 07:06:31;;;;;;;;;;;;;;;;;;5075726;28;20363;-70
2021/09/22 07:08:57;;;;;;;;;;;;;;;;;;5075268;28;20381;-69
2021/09/22 07:11:27;;;;;;;;;;;;;;;;;;5074959;28;19925;-71
2021/09/22 07:13:54;;;;;;;;;;;;;;;;;;5071639;28;19931;-69
2021/09/22 07:16:21;;;;;;;;;;;;;;;;;;5071556;28;19951;-68
2021/09/22 07:18:48;;;;;;;;;;;;;;;;;;5074759;28;19935;-70
2021/09/22 07:21:16;;;;;;;;;;;;;;;;;;5074747;28;19924;-67
2021/09/22 07:23:43;;;;;;;;;;;;;;;;;;5070577;28;19924;-70
2021/09/22 07:26:10;;;;;;;;;;;;;;;;;;5074956;28;20003;-68
2021/09/22 07:28:37;;;;;;;;;;;;;;;;;;5074106;28;19946;-69
2021/09/22 07:31:04;;;;;;;;;;;;;;;;;;5074600;28;19931;-69
2021/09/22 07:33:31;;;;;;;;;;;;;;;;;;5073938;28;19928;-72
2021/09/22 07:35:58;;;;;;;;;;;;;;;;;;5075535;28;20311;-71
2021/09/22 07:38:26;;;;;;;;;;;;;;;;;;5074460;28;19951;-69
2021/09/22 07:40:53;;;;;;;;;;;;;;;;;;5074495;28;19924;-70
2021/09/22 07:43:20;;;;;;;;;;;;;;;;;;5073911;28;19929;-69
2021/09/22 07:45:47;;;;;;;;;;;;;;;;;;5074914;28;19979;-71
2021/09/22 07:48:14;;;;;;;;;;;;;;;;;;5074240;28;19946;-68
2021/09/22 07:50:41;;;;;;;;;;;;;;;;;;5073798;28;19924;-69
2021/09/22 07:53:08;;;;;;;;;;;;;;;;;;5073944;28;19925;-69
2021/09/22 07:55:35;;;;;;;;;;;;;;;;;;5074623;28;20010;-70
2021/09/22 07:58:02;;;;;;;;;;;;;;;;;;5073312;28;19924;-71
2021/09/22 08:00:29;;;;;;;;;;;;;;;;;;5073853;28;19931;-69
2021/09/22 08:02:58;;;;;;;;;;;;;;;;;;5073532;28;19924;-69
2021/09/22 08:05:25;;;;;;;;;;;;;;;;;;5074623;28;19925;-71
2021/09/22 08:07:52;;;;;;;;;;;;;;;;;;5073811;28;20287;-69
2021/09/22 08:10:19;;;;;;;;;;;;;;;;;;5073258;28;19928;-69
2021/09/22 08:12:47;;;;;;;;;;;;;;;;;;5073429;28;20432;-69
2021/09/22 08:15:14;;;;;;;;;;;;;;;;;;5074497;28;20350;-69
2021/09/22 08:17:41;;;;;;;;;;;;;;;;;;5073315;28;19928;-69
2021/09/22 08:20:07;;;;;;;;;;;;;;;;;;5073096;28;19925;-69
2021/09/22 08:22:34;;;;;;;;;;;;;;;;;;5073543;28;19928;-67
2021/09/22 08:25:02;;;;;;;;;;;;;;;;;;5074455;28;20027;-71
2021/09/22 08:27:29;;;;;;;;;;;;;;;;;;5073401;28;19924;-69
2021/09/22 08:29:56;;;;;;;;;;;;;;;;;;5072027;28;19924;-69
2021/09/22 08:32:23;;;;;;;;;;;;;;;;;;5072335;28;20023;-69
2021/09/22 08:34:50;;;;;;;;;;;;;;;;;;5073978;28;20384;-68
2021/09/22 08:37:17;;;;;;;;;;;;;;;;;;5072278;28;19924;-68
2021/09/22 08:39:44;;;;;;;;;;;;;;;;;;5072597;28;19929;-68
2021/09/22 08:42:11;;;;;;;;;;;;;;;;;;5072776;28;19928;-68
2021/09/22 08:44:38;;;;;;;;;;;;;;;;;;5073825;28;19932;-68
2021/09/22 08:47:05;;;;;;;;;;;;;;;;;;5072850;28;19959;-69
2021/09/22 08:49:32;;;;;;;;;;;;;;;;;;5072630;28;19924;-70
2021/09/22 08:51:59;;;;;;;;;;;;;;;;;;5072582;28;19925;-69
2021/09/22 08:54:26;;;;;;;;;;;;;;;;;;5073803;28;19950;-71
2021/09/22 08:56:53;;;;;;;;;;;;;;;;;;5073017;28;19924;-69
2021/09/22 08:59:20;;;;;;;;;;;;;;;;;;5072453;28;19931;-68
2021/09/22 09:01:47;;;;;;;;;;;;;;;;;;5072194;28;19928;-69
2021/09/22 09:04:14;;;;;;;;;;;;;;;;;;5073705;28;19947;-69
2021/09/22 09:06:41;;;;;;;;;;;;;;;;;;5072494;28;20083;-67
2021/09/22 09:09:08;;;;;;;;;;;;;;;;;;5072634;28;19959;-68
2021/09/22 09:11:35;;;;;;;;;;;;;;;;;;5072665;28;20300;-70
2021/09/22 09:14:02;;;;;;;;;;;;;;;;;;5073531;28;20284;-68
2021/09/22 09:16:29;;;;;;;;;;;;;;;;;;5072587;28;19924;-71
2021/09/22 09:18:56;;;;;;;;;;;;;;;;;;5072518;28;20015;-71
2021/09/22 09:21:23;;;;;;;;;;;;;;;;;;5071977;28;20372;-68
2021/09/22 09:23:50;;;;;;;;;;;;;;;;;;5073638;28;19924;-68
2021/09/22 09:26:17;;;;;;;;;;;;;;;;;;5072521;28;19925;-69
2021/09/22 09:28:44;;;;;;;;;;;;;;;;;;5072298;28;19930;-68
2021/09/22 09:31:11;;;;;;;;;;;;;;;;;;5072356;28;19931;-67
2021/09/22 09:33:38;;;;;;;;;;;;;;;;;;5073043;28;19924;-69
2021/09/22 09:36:05;;;;;;;;;;;;;;;;;;5072124;28;20394;-69
2021/09/22 09:38:32;;;;;;;;;;;;;;;;;;5072411;28;19932;-68
2021/09/22 09:40:58;;;;;;;;;;;;;;;;;;5071976;28;19930;-69
2021/09/22 09:43:25;;;;;;;;;;;;;;;;;;5097580;22;19928;-65
2021/09/22 09:45:52;;;;;;;;;;;;;;;;;;5090753;28;19936;-65
2021/09/22 09:48:20;;;;;;;;;;;;;;;;;;5092009;28;19924;-66
2021/09/22 09:50:47;;;;;;;;;;;;;;;;;;5095180;28;19928;-65
2021/09/22 09:53:14;;;;;;;;;;;;;;;;;;5090958;28;19924;-65
2021/09/22 09:55:41;;;;;;;;;;;;;;;;;;5076426;28;19932;-65
2021/09/22 09:58:08;;;;;;;;;;;;;;;;;;5076204;28;19925;-65
2021/09/22 10:00:35;;;;;;;;;;;;;;;;;;5075718;28;20061;-65
2021/09/22 10:03:02;;;;;;;;;;;;;;;;;;5076129;28;19925;-65
2021/09/22 10:05:29;;;;;;;;;;;;;;;;;;5076464;28;20304;-65
2021/09/22 10:07:56;;;;;;;;;;;;;;;;;;5076078;28;19925;-65
2021/09/22 10:10:23;;;;;;;;;;;;;;;;;;5075743;28;19932;-65
2021/09/22 10:12:50;;;;;;;;;;;;;;;;;;5072076;28;19931;-65
2021/09/22 10:15:17;;;;;;;;;;;;;;;;;;5076564;28;20042;-65
2021/09/22 10:17:44;;;;;;;;;;;;;;;;;;5075594;28;19930;-65
2021/09/22 10:20:11;;;;;;;;;;;;;;;;;;5075776;28;20130;-65
2021/09/22 10:22:38;;;;;;;;;;;;;;;;;;5075698;28;19924;-65
2021/09/22 10:25:05;;;;;;;;;;;;;;;;;;5076618;28;19931;-65
2021/09/22 10:27:32;;;;;;;;;;;;;;;;;;5075204;28;19932;-65
2021/09/22 10:30:00;;;;;;;;;;;;;;;;;;5075239;28;20352;-65
2021/09/22 10:32:27;;;;;;;;;;;;;;;;;;5074889;28;20011;-65
2021/09/22 10:34:54;;;;;;;;;;;;;;;;;;5075897;28;19997;-65
2021/09/22 10:37:21;;;;;;;;;;;;;;;;;;5075138;28;19924;-65
2021/09/22 10:39:48;;;;;;;;;;;;;;;;;;5074892;28;20075;-65
2021/09/22 10:42:15;;;;;;;;;;;;;;;;;;5074959;28;19924;-65
2021/09/22 10:44:42;;;;;;;;;;;;;;;;;;5075667;28;19930;-65
2021/09/22 10:47:09;;;;;;;;;;;;;;;;;;5075226;28;19924;-65
2021/09/22 10:49:36;;;;;;;;;;;;;;;;;;5075023;28;20008;-65
2021/09/22 10:52:02;;;;;;;;;;;;;;;;;;5074965;28;20380;-65
2021/09/22 10:54:30;;;;;;;;;;;;;;;;;;5075973;28;19935;-65
2021/09/22 10:56:57;;;;;;;;;;;;;;;;;;5074474;28;19928;-65
2021/09/22 10:59:24;;;;;;;;;;;;;;;;;;5075084;28;20381;-65
2021/09/22 11:01:51;;;;;;;;;;;;;;;;;;5070968;28;19970;-65
2021/09/22 11:04:26;;;;;;;;;;;;;;;;;;5075280;28;19929;-65
2021/09/22 11:06:53;;;;;;;;;;;;;;;;;;5074865;28;19970;-65
2021/09/22 11:09:20;;;;;;;;;;;;;;;;;;5074969;28;19925;-66
2021/09/22 11:11:47;;;;;;;;;;;;;;;;;;5074184;28;19924;-65
2021/09/22 11:14:14;;;;;;;;;;;;;;;;;;5075340;28;20036;-65
2021/09/22 11:16:41;;;;;;;;;;;;;;;;;;5075438;28;19931;-65
2021/09/22 11:19:08;;;;;;;;;;;;;;;;;;5074118;28;19928;-65
2021/09/22 11:21:37;;;;;;;;;;;;;;;;;;5074521;28;19924;-66
2021/09/22 11:24:04;;;;;;;;;;;;;;;;;;5075045;28;19924;-66
2021/09/22 11:26:31;;;;;;;;;;;;;;;;;;5074369;28;19929;-66
2021/09/22 11:28:59;;;;;;;;;;;;;;;;;;5074417;28;19951;-66
2021/09/22 11:31:26;;;;;;;;;;;;;;;;;;5074180;28;19928;-65
2021/09/22 11:33:53;;;;;;;;;;;;;;;;;;5075161;28;19967;-65
2021/09/22 11:36:20;;;;;;;;;;;;;;;;;;5074155;28;19924;-66
2021/09/22 11:38:47;;;;;;;;;;;;;;;;;;5074140;28;20243;-66
2021/09/22 11:41:16;;;;;;;;;;;;;;;;;;5074236;28;19946;-66
2021/09/22 11:43:43;;;;;;;;;;;;;;;;;;5074830;28;19924;-66
2021/09/22 11:46:09;;;;;;;;;;;;;;;;;;5073998;28;20292;-66
2021/09/22 11:48:36;;;;;;;;;;;;;;;;;;5073919;28;19925;-65
2021/09/22 11:51:04;;;;;;;;;;;;;;;;;;5073518;28;19982;-65
2021/09/22 11:53:32;;;;;;;;;;;;;;;;;;5074905;28;20304;-65
2021/09/22 11:55:59;;;;;;;;;;;;;;;;;;5074044;28;19931;-65
2021/09/22 11:58:26;;;;;;;;;;;;;;;;;;5073796;28;20392;-65
2021/09/22 12:00:53;;;;;;;;;;;;;;;;;;5073455;28;20380;-65
2021/09/22 12:03:20;;;;;;;;;;;;;;;;;;5074359;28;19924;-65
2021/09/22 12:05:47;;;;;;;;;;;;;;;;;;5073564;28;19928;-64
2021/09/22 12:08:14;;;;;;;;;;;;;;;;;;5073533;28;19928;-64
2021/09/22 12:10:41;;;;;;;;;;;;;;;;;;5073697;28;20295;-65
2021/09/22 12:13:08;;;;;;;;;;;;;;;;;;5073319;28;19931;-65
2021/09/22 12:15:35;;;;;;;;;;;;;;;;;;5072506;28;19925;-65
2021/09/22 12:18:02;;;;;;;;;;;;;;;;;;5073196;28;20303;-65
2021/09/22 12:20:29;;;;;;;;;;;;;;;;;;5072803;28;19925;-65
2021/09/22 12:22:56;;;;;;;;;;;;;;;;;;5074432;28;20360;-65
2021/09/22 12:25:23;;;;;;;;;;;;;;;;;;5074243;28;20015;-64
2021/09/22 12:27:50;;;;;;;;;;;;;;;;;;5074677;28;19946;-64
2021/09/22 12:30:17;;;;;;;;;;;;;;;;;;5073798;28;20219;-64
2021/09/22 12:32:44;;;;;;;;;;;;;;;;;;5074551;28;20291;-64
2021/09/22 12:35:11;;;;;;;;;;;;;;;;;;5073456;28;19992;-64
2021/09/22 12:37:38;;;;;;;;;;;;;;;;;;5073183;28;19931;-64
2021/09/22 12:40:05;;;;;;;;;;;;;;;;;;5073404;28;19924;-64
2021/09/22 12:42:32;;;;;;;;;;;;;;;;;;5073968;28;19930;-64
2021/09/22 12:45:00;;;;;;;;;;;;;;;;;;5073062;28;19924;-64
2021/09/22 12:47:27;;;;;;;;;;;;;;;;;;5072591;28;19928;-64
2021/09/22 12:49:54;;;;;;;;;;;;;;;;;;5072887;28;20353;-64
2021/09/22 12:52:21;;;;;;;;;;;;;;;;;;5074046;28;19924;-64
2021/09/22 12:54:48;;;;;;;;;;;;;;;;;;5073055;28;19924;-64
2021/09/22 12:57:15;;;;;;;;;;;;;;;;;;5072628;28;19930;-65
2021/09/22 12:59:42;;;;;;;;;;;;;;;;;;5072443;28;19924;-64
2021/09/22 13:02:09;;;;;;;;;;;;;;;;;;5073493;28;19931;-64
2021/09/22 13:04:36;;;;;;;;;;;;;;;;;;5072580;28;19924;-64
2021/09/22 13:07:03;;;;;;;;;;;;;;;;;;5072706;28;20278;-64
2021/09/22 13:09:30;;;;;;;;;;;;;;;;;;5072269;28;19932;-64
2021/09/22 13:11:57;;;;;;;;;;;;;;;;;;5073477;28;20388;-64
2021/09/22 13:14:24;;;;;;;;;;;;;;;;;;5072252;28;20431;-64
2021/09/22 13:16:52;;;;;;;;;;;;;;;;;;5072110;28;19967;-66
2021/09/22 13:19:19;;;;;;;;;;;;;;;;;;5072461;28;19924;-64
2021/09/22 13:21:46;;;;;;;;;;;;;;;;;;5073293;28;20031;-65
2021/09/22 13:24:13;;;;;;;;;;;;;;;;;;5071492;28;20200;-64
2021/09/22 13:26:40;;;;;;;;;;;;;;;;;;5072209;28;20286;-65
2021/09/22 13:29:07;;;;;;;;;;;;;;;;;;5072027;28;19925;-65
2021/09/22 13:31:34;;;;;;;;;;;;;;;;;;5072504;28;19932;-65
2021/09/22 13:34:01;;;;;;;;;;;;;;;;;;5072372;28;20295;-65
2021/09/22 13:36:28;;;;;;;;;;;;;;;;;;5072392;28;19929;-65
2021/09/22 13:38:55;;;;;;;;;;;;;;;;;;5072170;28;19924;-64
2021/09/22 13:41:22;;;;;;;;;;;;;;;;;;5072608;28;19954;-66
2021/09/22 13:43:49;;;;;;;;;;;;;;;;;;5072165;28;20360;-65
2021/09/22 13:46:18;;;;;;;;;;;;;;;;;;5072303;28;19982;-64
2021/09/22 13:48:45;;;;;;;;;;;;;;;;;;5072415;28;20349;-65
2021/09/22 13:51:12;;;;;;;;;;;;;;;;;;5072512;28;20001;-65
2021/09/22 13:53:39;;;;;;;;;;;;;;;;;;5072587;28;20078;-65
2021/09/22 13:56:05;;;;;;;;;;;;;;;;;;5072129;28;19984;-65
2021/09/22 13:58:32;;;;;;;;;;;;;;;;;;5072063;28;20447;-65
2021/09/22 14:00:59;;;;;;;;;;;;;;;;;;5072146;28;20394;-65
2021/09/22 14:03:26;;;;;;;;;;;;;;;;;;5072893;28;20368;-65
2021/09/22 14:05:53;;;;;;;;;;;;;;;;;;5072115;28;19924;-65
2021/09/22 14:08:20;;;;;;;;;;;;;;;;;;5071998;28;19930;-65
2021/09/22 14:10:47;;;;;;;;;;;;;;;;;;5067736;28;20047;-64
2021/09/22 14:13:14;;;;;;;;;;;;;;;;;;5070942;28;19928;-64
2021/09/22 14:15:41;;;;;;;;;;;;;;;;;;5072221;28;19995;-65
2021/09/22 14:18:08;;;;;;;;;;;;;;;;;;5071949;28;20023;-65
2021/09/22 14:20:35;;;;;;;;;;;;;;;;;;5071674;28;19946;-65
2021/09/22 14:23:02;;;;;;;;;;;;;;;;;;5072442;28;20006;-65
2021/09/22 14:25:29;;;;;;;;;;;;;;;;;;5072248;28;20398;-64
2021/09/22 14:27:56;;;;;;;;;;;;;;;;;;5071554;28;19934;-64
2021/09/22 14:30:23;;;;;;;;;;;;;;;;;;5071854;28;19925;-65
2021/09/22 14:32:51;;;;;;;;;;;;;;;;;;5072605;28;19924;-64
2021/09/22 14:35:18;;;;;;;;;;;;;;;;;;5072371;28;19928;-65
2021/09/22 14:37:45;;;;;;;;;;;;;;;;;;5075200;28;19931;-65
2021/09/22 14:40:12;;;;;;;;;;;;;;;;;;5074985;28;19972;-64
2021/09/22 14:42:39;;;;;;;;;;;;;;;;;;5075998;28;19924;-65
2021/09/22 14:45:06;;;;;;;;;;;;;;;;;;5070604;28;19931;-64
2021/09/22 14:47:33;;;;;;;;;;;;;;;;;;5070402;28;20272;-64
2021/09/22 14:49:59;;;;;;;;;;;;;;;;;;5074563;28;19931;-65
2021/09/22 14:52:26;;;;;;;;;;;;;;;;;;5075792;28;20022;-64
2021/09/22 14:54:53;;;;;;;;;;;;;;;;;;5075143;28;19931;-65
2021/09/22 14:57:20;;;;;;;;;;;;;;;;;;5075443;28;20281;-64
2021/09/22 14:59:47;;;;;;;;;;;;;;;;;;5075124;28;20436;-64
2021/09/22 15:02:14;;;;;;;;;;;;;;;;;;5075853;28;19931;-64
2021/09/22 15:04:41;;;;;;;;;;;;;;;;;;5075056;28;20402;-64
2021/09/22 15:07:08;;;;;;;;;;;;;;;;;;5074613;28;19929;-64
2021/09/22 15:09:35;;;;;;;;;;;;;;;;;;5074841;28;20007;-65
2021/09/22 15:12:02;;;;;;;;;;;;;;;;;;5075714;28;19925;-65
2021/09/22 15:14:29;;;;;;;;;;;;;;;;;;5074899;28;19950;-63
2021/09/22 15:16:56;;;;;;;;;;;;;;;;;;5074845;28;19924;-63
2021/09/22 15:19:23;;;;;;;;;;;;;;;;;;5074808;28;19931;-63
2021/09/22 15:21:50;;;;;;;;;;;;;;;;;;5075717;28;19928;-63
2021/09/22 15:24:17;;;;;;;;;;;;;;;;;;5074568;28;20379;-63
2021/09/22 15:26:44;;;;;;;;;;;;;;;;;;5075010;28;20015;-66
2021/09/22 15:29:10;;;;;;;;;;;;;;;;;;5074039;28;19924;-66
2021/09/22 15:31:37;;;;;;;;;;;;;;;;;;5075842;28;19924;-66
2021/09/22 15:34:04;;;;;;;;;;;;;;;;;;5074419;28;19924;-66
2021/09/22 15:36:31;;;;;;;;;;;;;;;;;;5074850;28;20005;-66
2021/09/22 15:38:58;;;;;;;;;;;;;;;;;;5074738;28;20423;-66
2021/09/22 15:41:25;;;;;;;;;;;;;;;;;;5075107;28;20034;-67
2021/09/22 15:43:52;;;;;;;;;;;;;;;;;;5074940;28;19983;-66
2021/09/22 15:46:19;;;;;;;;;;;;;;;;;;5075031;28;20311;-67
2021/09/22 15:48:46;;;;;;;;;;;;;;;;;;5075007;28;19925;-67
2021/09/22 15:51:14;;;;;;;;;;;;;;;;;;5076454;28;19924;-67
2021/09/22 15:53:41;;;;;;;;;;;;;;;;;;5076155;28;20015;-67
2021/09/22 15:56:08;;;;;;;;;;;;;;;;;;5074122;28;20304;-63
2021/09/22 15:58:35;;;;;;;;;;;;;;;;;;5073917;28;20019;-63
2021/09/22 16:01:02;;;;;;;;;;;;;;;;;;5069628;28;19931;-63
2021/09/22 16:03:31;;;;;;;;;;;;;;;;;;5073450;28;19932;-66
2021/09/22 16:05:59;;;;;;;;;;;;;;;;;;5073888;28;20319;-65
2021/09/22 16:08:26;;;;;;;;;;;;;;;;;;5073577;28;19972;-64
2021/09/22 16:10:53;;;;;;;;;;;;;;;;;;5074263;28;19924;-64
2021/09/22 16:13:20;;;;;;;;;;;;;;;;;;5072758;28;19924;-65
2021/09/22 16:15:47;;;;;;;;;;;;;;;;;;5073398;28;19925;-64
2021/09/22 16:18:14;;;;;;;;;;;;;;;;;;5073889;28;19928;-66
2021/09/22 16:20:41;;;;;;;;;;;;;;;;;;5073832;28;19963;-64
2021/09/22 16:23:08;;;;;;;;;;;;;;;;;;5073524;28;19932;-65
2021/09/22 16:25:35;;;;;;;;;;;;;;;;;;5073393;28;19925;-63
2021/09/22 16:28:02;;;;;;;;;;;;;;;;;;5073513;28;20418;-67
2021/09/22 16:30:29;;;;;;;;;;;;;;;;;;5073369;28;19990;-62
2021/09/22 16:32:56;;;;;;;;;;;;;;;;;;5073889;28;20335;-65
2021/09/22 16:35:23;;;;;;;;;;;;;;;;;;5073649;28;19924;-63
2021/09/22 16:37:51;;;;;;;;;;;;;;;;;;5072993;28;19971;-65
2021/09/22 16:40:18;;;;;;;;;;;;;;;;;;5073347;28;19932;-64
2021/09/22 16:42:44;;;;;;;;;;;;;;;;;;5073267;28;19925;-65